createdAt,value
2019-02-08T00:00:01.543Z,38.70
2019-02-08T00:00:40.494Z,30.60
2019-02-08T00:01:19.003Z,34.63
2019-02-08T00:01:52.620Z,35.80
2019-02-08T00:02:26.598Z,36.63
2019-02-08T00:03:00.433Z,37.25
2019-02-08T00:03:34.093Z,34.48
2019-02-08T00:04:08.272Z,30.05
2019-02-08T00:04:41.957Z,39.95
2019-02-08T00:05:16.093Z,36.80
2019-02-08T00:05:49.639Z,40.28
2019-02-08T00:06:23.602Z,36.20
2019-02-08T00:06:57.172Z,40.73
2019-02-08T00:07:30.689Z,38.70
2019-02-08T00:08:04.591Z,42.27
2019-02-08T00:08:38.100Z,33.40
2019-02-08T00:09:11.607Z,41.55
2019-02-08T00:09:45.147Z,36.28
2019-02-08T00:10:18.908Z,36.03
2019-02-08T00:10:52.427Z,40.17
2019-02-08T00:11:26.129Z,36.80
2019-02-08T00:11:59.752Z,43.23
2019-02-08T00:12:33.357Z,36.80
2019-02-08T00:13:07.265Z,35.00
2019-02-08T00:13:40.824Z,36.53
2019-02-08T00:14:14.413Z,37.88
2019-02-08T00:14:47.903Z,39.85
2019-02-08T00:15:21.792Z,48.73
2019-02-08T00:15:55.314Z,35.13
2019-02-08T00:16:28.875Z,35.15
2019-02-08T00:17:02.572Z,36.73
2019-02-08T00:17:36.139Z,38.30
2019-02-08T00:18:09.919Z,36.40
2019-02-08T00:18:43.518Z,38.83
2019-02-08T00:19:17.021Z,39.35
2019-02-08T00:19:50.512Z,31.80
2019-02-08T00:20:24.038Z,39.27
2019-02-08T00:20:57.636Z,38.40
2019-02-08T00:21:31.152Z,37.00
2019-02-08T00:22:06.095Z,44.10
2019-02-08T00:22:39.878Z,31.60
2019-02-08T00:23:13.446Z,37.67
2019-02-08T00:23:47.363Z,38.08
2019-02-08T00:24:21.218Z,37.33
2019-02-08T00:24:55.021Z,37.38
2019-02-08T00:25:29.951Z,41.95
2019-02-08T00:26:03.978Z,40.30
2019-02-08T00:26:37.535Z,38.92
2019-02-08T00:27:11.353Z,40.17
2019-02-08T00:27:44.917Z,36.75
2019-02-08T00:28:19.012Z,41.02
2019-02-08T00:28:52.531Z,37.53
2019-02-08T00:29:26.062Z,36.60
2019-02-08T00:29:59.581Z,39.18
2019-02-08T00:30:33.102Z,41.33
2019-02-08T00:31:06.880Z,40.52
2019-02-08T00:31:40.478Z,40.33
2019-02-08T00:32:14.029Z,41.80
2019-02-08T00:32:47.523Z,37.95
2019-02-08T00:33:21.060Z,42.90
2019-02-08T00:33:54.743Z,40.40
2019-02-08T00:34:28.237Z,39.20
2019-02-08T00:35:01.736Z,39.20
2019-02-08T00:35:35.340Z,39.35
2019-02-08T00:36:08.872Z,41.05
2019-02-08T00:36:42.383Z,45.70
2019-02-08T00:37:16.030Z,42.45
2019-02-08T00:37:49.668Z,46.83
2019-02-08T00:38:23.337Z,39.35
2019-02-08T00:38:57.146Z,43.52
2019-02-08T00:39:30.748Z,40.00
2019-02-08T00:40:05.064Z,42.08
2019-02-08T00:40:38.581Z,42.62
2019-02-08T00:41:16.554Z,38.67
2019-02-08T00:41:51.811Z,28.35
2019-02-08T00:42:25.283Z,37.80
2019-02-08T00:42:58.838Z,32.38
2019-02-08T00:43:32.313Z,35.23
2019-02-08T00:44:05.915Z,42.43
2019-02-08T00:44:39.464Z,39.23
2019-02-08T00:45:14.195Z,34.40
2019-02-08T00:45:47.720Z,38.40
2019-02-08T00:46:21.277Z,35.38
2019-02-08T00:46:54.884Z,35.05
2019-02-08T00:47:28.517Z,42.93
2019-02-08T00:48:02.092Z,34.63
2019-02-08T00:48:35.725Z,42.90
2019-02-08T00:49:09.505Z,39.67
2019-02-08T00:49:43.006Z,38.70
2019-02-08T00:50:17.936Z,35.63
2019-02-08T00:50:51.535Z,41.60
2019-02-08T00:51:25.340Z,40.43
2019-02-08T00:51:59.068Z,41.70
2019-02-08T00:52:32.774Z,35.13
2019-02-08T00:53:06.286Z,41.33
2019-02-08T00:53:39.982Z,37.00
2019-02-08T00:54:13.528Z,36.08
2019-02-08T00:54:47.219Z,41.53
2019-02-08T00:55:20.780Z,37.80
2019-02-08T00:55:54.323Z,37.35
2019-02-08T00:56:27.870Z,43.00
2019-02-08T00:57:01.417Z,40.98
2019-02-08T00:57:34.926Z,36.75
2019-02-08T00:58:08.418Z,35.55
2019-02-08T00:58:42.011Z,37.30
2019-02-08T00:59:15.564Z,35.48
2019-02-08T00:59:49.057Z,41.55
2019-02-08T01:00:22.858Z,38.53
2019-02-08T01:00:56.449Z,43.73
2019-02-08T01:01:30.064Z,37.08
2019-02-08T01:02:03.657Z,34.45
2019-02-08T01:02:37.168Z,39.60
2019-02-08T01:03:10.741Z,34.43
2019-02-08T01:03:44.240Z,36.95
2019-02-08T01:04:17.751Z,39.88
2019-02-08T01:04:51.264Z,38.88
2019-02-08T01:05:25.180Z,38.63
2019-02-08T01:05:58.719Z,44.55
2019-02-08T01:06:32.228Z,39.65
2019-02-08T01:07:07.898Z,42.43
2019-02-08T01:07:41.425Z,40.67
2019-02-08T01:08:14.975Z,38.85
2019-02-08T01:08:48.788Z,43.13
2019-02-08T01:09:22.275Z,38.50
2019-02-08T01:09:56.072Z,38.98
2019-02-08T01:10:30.055Z,42.00
2019-02-08T01:11:04.134Z,37.67
2019-02-08T01:11:37.730Z,43.60
2019-02-08T01:12:11.712Z,41.25
2019-02-08T01:12:45.351Z,38.80
2019-02-08T01:13:19.064Z,38.38
2019-02-08T01:13:52.629Z,39.35
2019-02-08T01:14:26.141Z,34.05
2019-02-08T01:14:59.665Z,41.48
2019-02-08T01:15:33.598Z,36.17
2019-02-08T01:16:07.178Z,36.25
2019-02-08T01:16:40.757Z,43.13
2019-02-08T01:17:14.276Z,41.42
2019-02-08T01:17:48.051Z,36.85
2019-02-08T01:18:21.646Z,34.18
2019-02-08T01:18:55.172Z,40.48
2019-02-08T01:19:28.792Z,41.58
2019-02-08T01:20:02.488Z,39.58
2019-02-08T01:20:36.174Z,35.68
2019-02-08T01:21:09.713Z,36.90
2019-02-08T01:21:43.250Z,40.05
2019-02-08T01:22:16.839Z,35.92
2019-02-08T01:22:50.338Z,37.85
2019-02-08T01:23:23.869Z,37.30
2019-02-08T01:23:57.397Z,35.23
2019-02-08T01:24:30.933Z,44.55
2019-02-08T01:25:05.924Z,39.27
2019-02-08T01:25:39.543Z,47.05
2019-02-08T01:26:13.050Z,45.78
2019-02-08T01:26:46.600Z,40.08
2019-02-08T01:27:20.164Z,40.67
2019-02-08T01:27:53.758Z,38.85
2019-02-08T01:28:27.199Z,41.83
2019-02-08T01:29:00.780Z,42.50
2019-02-08T01:29:34.352Z,45.60
2019-02-08T01:30:09.412Z,36.70
2019-02-08T01:30:42.949Z,40.00
2019-02-08T01:31:16.549Z,41.25
2019-02-08T01:31:50.187Z,43.05
2019-02-08T01:32:23.700Z,39.20
2019-02-08T01:32:57.408Z,43.28
2019-02-08T01:33:30.915Z,36.05
2019-02-08T01:34:04.520Z,43.83
2019-02-08T01:34:38.007Z,38.98
2019-02-08T01:35:12.326Z,41.58
2019-02-08T01:35:45.926Z,39.58
2019-02-08T01:36:19.429Z,41.70
2019-02-08T01:36:52.945Z,35.48
2019-02-08T01:37:26.476Z,42.13
2019-02-08T01:38:00.023Z,43.17
2019-02-08T01:38:33.512Z,40.48
2019-02-08T01:39:07.776Z,40.23
2019-02-08T01:39:41.348Z,39.48
2019-02-08T01:40:19.020Z,45.48
2019-02-08T01:40:52.495Z,42.75
2019-02-08T01:41:26.013Z,38.70
2019-02-08T01:41:59.564Z,38.85
2019-02-08T01:42:33.149Z,44.75
2019-02-08T01:43:07.148Z,38.83
2019-02-08T01:43:40.656Z,40.55
2019-02-08T01:44:14.168Z,46.53
2019-02-08T01:44:47.728Z,41.98
2019-02-08T01:45:22.202Z,41.42
2019-02-08T01:45:55.739Z,37.80
2019-02-08T01:46:29.232Z,35.65
2019-02-08T01:47:03.036Z,41.95
2019-02-08T01:47:36.567Z,40.70
2019-02-08T01:48:10.100Z,45.00
2019-02-08T01:48:43.683Z,47.45
2019-02-08T01:49:17.172Z,40.00
2019-02-08T01:49:50.669Z,37.70
2019-02-08T01:50:25.016Z,39.10
2019-02-08T01:50:58.671Z,43.10
2019-02-08T01:51:32.269Z,38.40
2019-02-08T01:52:05.822Z,40.30
2019-02-08T01:52:39.346Z,36.30
2019-02-08T01:53:12.996Z,40.95
2019-02-08T01:53:48.780Z,38.42
2019-02-08T01:54:21.709Z,44.60
2019-02-08T01:54:55.206Z,43.48
2019-02-08T01:55:28.927Z,40.50
2019-02-08T01:56:02.428Z,42.15
2019-02-08T01:56:36.068Z,43.63
2019-02-08T01:57:09.585Z,42.95
2019-02-08T01:57:43.392Z,39.65
2019-02-08T01:58:16.880Z,39.78
2019-02-08T01:58:50.436Z,38.38
2019-02-08T01:59:23.979Z,46.50
2019-02-08T01:59:57.510Z,35.58
2019-02-08T02:00:32.457Z,43.15
2019-02-08T02:01:06.556Z,36.50
2019-02-08T02:01:44.601Z,43.20
2019-02-08T02:02:18.521Z,37.90
2019-02-08T02:02:52.197Z,41.25
2019-02-08T02:03:25.794Z,37.85
2019-02-08T02:04:00.801Z,44.85
2019-02-08T02:04:35.834Z,38.65
2019-02-08T02:05:09.637Z,42.80
2019-02-08T02:05:44.927Z,40.40
2019-02-08T02:06:18.441Z,43.90
2019-02-08T02:06:55.957Z,42.35
2019-02-08T02:07:41.271Z,45.63
2019-02-08T02:08:15.140Z,39.92
2019-02-08T02:08:53.152Z,38.85
2019-02-08T02:09:26.789Z,39.15
2019-02-08T02:10:03.083Z,44.70
2019-02-08T02:10:37.931Z,41.40
2019-02-08T02:11:11.460Z,39.38
2019-02-08T02:11:44.967Z,43.15
2019-02-08T02:12:19.979Z,41.53
2019-02-08T02:13:01.566Z,43.73
2019-02-08T02:13:35.133Z,38.75
2019-02-08T02:14:14.249Z,40.50
2019-02-08T02:14:47.772Z,39.60
2019-02-08T02:15:21.461Z,39.20
2019-02-08T02:15:54.951Z,35.92
2019-02-08T02:16:30.117Z,39.73
2019-02-08T02:17:10.765Z,36.88
2019-02-08T02:17:54.042Z,37.73
2019-02-08T02:18:27.536Z,38.23
2019-02-08T02:19:04.212Z,41.37
2019-02-08T02:19:43.258Z,39.58
2019-02-08T02:20:17.797Z,37.50
2019-02-08T02:20:52.063Z,39.27
2019-02-08T02:21:29.044Z,39.98
2019-02-08T02:22:02.730Z,50.40
2019-02-08T02:22:39.697Z,43.15
2019-02-08T02:23:17.053Z,35.03
2019-02-08T02:23:55.947Z,38.33
2019-02-08T02:24:25.974Z,37.17
2019-02-08T02:25:02.506Z,35.98
2019-02-08T02:25:41.084Z,38.20
2019-02-08T02:26:14.605Z,36.05
2019-02-08T02:26:53.249Z,39.48
2019-02-08T02:27:26.728Z,40.80
2019-02-08T02:28:01.697Z,38.85
2019-02-08T02:28:37.836Z,42.43
2019-02-08T02:29:15.295Z,37.25
2019-02-08T02:29:57.143Z,35.35
2019-02-08T02:30:34.793Z,42.08
2019-02-08T02:31:10.204Z,42.48
2019-02-08T02:31:46.356Z,36.30
2019-02-08T02:32:19.754Z,46.23
2019-02-08T02:32:55.472Z,34.03
2019-02-08T02:33:56.670Z,35.33
2019-02-08T02:34:52.661Z,35.10
2019-02-08T02:35:32.529Z,37.60
2019-02-08T02:36:06.072Z,40.55
2019-02-08T02:36:39.570Z,36.68
2019-02-08T02:37:13.636Z,39.60
2019-02-08T02:37:47.285Z,39.38
2019-02-08T02:38:34.349Z,33.35
2019-02-08T02:39:11.677Z,44.93
2019-02-08T02:39:49.388Z,42.33
2019-02-08T02:40:26.514Z,39.58
2019-02-08T02:41:00.444Z,40.38
2019-02-08T02:41:34.145Z,35.08
2019-02-08T02:42:09.123Z,35.38
2019-02-08T02:42:53.300Z,35.20
2019-02-08T02:43:26.657Z,37.55
2019-02-08T02:44:04.982Z,38.85
2019-02-08T02:44:43.899Z,37.78
2019-02-08T02:45:19.897Z,48.00
2019-02-08T02:45:55.798Z,35.90
2019-02-08T02:46:29.297Z,33.50
2019-02-08T02:47:08.453Z,43.13
2019-02-08T02:47:41.983Z,39.30
2019-02-08T02:48:18.298Z,39.78
2019-02-08T02:48:55.424Z,36.60
2019-02-08T02:49:29.054Z,38.98
2019-02-08T02:50:02.584Z,39.50
2019-02-08T02:50:36.360Z,39.45
2019-02-08T02:51:16.150Z,36.98
2019-02-08T02:52:01.425Z,47.80
2019-02-08T02:52:35.032Z,34.80
2019-02-08T02:53:08.958Z,32.35
2019-02-08T02:53:50.463Z,41.70
2019-02-08T02:54:23.994Z,35.38
2019-02-08T02:55:00.290Z,42.13
2019-02-08T02:55:34.653Z,37.40
2019-02-08T02:56:12.720Z,34.50
2019-02-08T02:56:46.237Z,47.23
2019-02-08T02:57:19.817Z,39.83
2019-02-08T02:57:53.609Z,44.80
2019-02-08T02:58:27.114Z,37.10
2019-02-08T02:59:00.633Z,36.68
2019-02-08T02:59:34.121Z,37.65
2019-02-08T03:00:12.206Z,37.53
2019-02-08T03:00:47.030Z,34.60
2019-02-08T03:01:20.525Z,38.42
2019-02-08T03:01:54.069Z,39.50
2019-02-08T03:02:27.590Z,35.35
2019-02-08T03:03:01.095Z,36.83
2019-02-08T03:03:34.609Z,38.90
2019-02-08T03:04:08.212Z,38.48
2019-02-08T03:04:41.718Z,39.45
2019-02-08T03:05:15.356Z,40.65
2019-02-08T03:05:48.844Z,36.25
2019-02-08T03:06:22.346Z,35.38
2019-02-08T03:06:55.864Z,34.10
2019-02-08T03:07:29.443Z,33.48
2019-02-08T03:08:03.525Z,33.30
2019-02-08T03:08:37.052Z,38.63
2019-02-08T03:09:10.520Z,38.45
2019-02-08T03:09:44.074Z,35.70
2019-02-08T03:10:18.129Z,38.25
2019-02-08T03:10:51.807Z,44.10
2019-02-08T03:11:25.387Z,33.60
2019-02-08T03:11:58.941Z,34.18
2019-02-08T03:12:32.473Z,35.40
2019-02-08T03:13:06.167Z,37.73
2019-02-08T03:13:39.682Z,39.35
2019-02-08T03:14:13.218Z,41.18
2019-02-08T03:14:46.678Z,40.38
2019-02-08T03:15:20.493Z,32.65
2019-02-08T03:15:54.028Z,39.65
2019-02-08T03:16:27.591Z,36.75
2019-02-08T03:17:01.157Z,35.58
2019-02-08T03:17:34.674Z,35.80
2019-02-08T03:18:08.210Z,33.80
2019-02-08T03:18:41.763Z,33.35
2019-02-08T03:19:15.338Z,36.63
2019-02-08T03:19:48.836Z,38.05
2019-02-08T03:20:22.781Z,35.28
2019-02-08T03:20:56.357Z,35.40
2019-02-08T03:21:29.771Z,38.80
2019-02-08T03:22:03.293Z,44.48
2019-02-08T03:22:36.794Z,38.65
2019-02-08T03:23:10.349Z,48.10
2019-02-08T03:23:43.918Z,35.55
2019-02-08T03:24:17.413Z,41.15
2019-02-08T03:24:51.006Z,37.25
2019-02-08T03:25:24.791Z,40.58
2019-02-08T03:25:58.400Z,40.10
2019-02-08T03:26:31.959Z,40.83
2019-02-08T03:27:05.509Z,38.42
2019-02-08T03:27:39.005Z,32.53
2019-02-08T03:28:12.517Z,37.60
2019-02-08T03:28:46.028Z,38.30
2019-02-08T03:29:19.525Z,42.58
2019-02-08T03:29:53.918Z,37.35
2019-02-08T03:30:40.774Z,41.53
2019-02-08T03:31:14.273Z,32.85
2019-02-08T03:31:48.126Z,35.95
2019-02-08T03:32:21.609Z,36.58
2019-02-08T03:32:55.206Z,37.23
2019-02-08T03:33:28.693Z,34.70
2019-02-08T03:34:02.239Z,39.90
2019-02-08T03:34:35.810Z,32.55
2019-02-08T03:35:11.526Z,36.08
2019-02-08T03:35:45.132Z,35.00
2019-02-08T03:36:18.657Z,35.05
2019-02-08T03:36:52.209Z,34.30
2019-02-08T03:37:25.702Z,36.03
2019-02-08T03:37:59.247Z,36.53
2019-02-08T03:38:32.683Z,36.42
2019-02-08T03:39:07.869Z,37.33
2019-02-08T03:39:41.384Z,35.73
2019-02-08T03:40:16.285Z,36.35
2019-02-08T03:40:49.804Z,32.45
2019-02-08T03:41:23.337Z,45.75
2019-02-08T03:41:56.840Z,32.17
2019-02-08T03:42:30.329Z,40.95
2019-02-08T03:43:04.026Z,38.50
2019-02-08T03:43:37.581Z,32.15
2019-02-08T03:44:11.181Z,39.48
2019-02-08T03:44:44.757Z,34.10
2019-02-08T03:45:18.667Z,36.40
2019-02-08T03:45:53.453Z,37.28
2019-02-08T03:46:26.936Z,32.53
2019-02-08T03:47:00.439Z,32.23
2019-02-08T03:47:34.139Z,33.73
2019-02-08T03:48:07.850Z,35.10
2019-02-08T03:48:41.515Z,35.08
2019-02-08T03:49:15.036Z,36.48
2019-02-08T03:49:48.551Z,45.03
2019-02-08T03:50:22.737Z,37.38
2019-02-08T03:50:56.268Z,32.03
2019-02-08T03:51:30.094Z,34.55
2019-02-08T03:52:03.691Z,37.75
2019-02-08T03:52:37.935Z,33.30
2019-02-08T03:53:11.772Z,33.92
2019-02-08T03:53:45.395Z,38.80
2019-02-08T03:54:21.113Z,36.15
2019-02-08T03:54:54.144Z,37.45
2019-02-08T03:55:27.673Z,40.15
2019-02-08T03:56:01.158Z,44.13
2019-02-08T03:56:34.685Z,35.30
2019-02-08T03:57:08.235Z,32.40
2019-02-08T03:57:41.789Z,38.15
2019-02-08T03:58:15.331Z,37.30
2019-02-08T03:58:48.826Z,35.15
2019-02-08T03:59:22.345Z,37.65
2019-02-08T03:59:56.094Z,36.50
2019-02-08T04:00:33.255Z,35.30
2019-02-08T04:01:08.294Z,39.65
2019-02-08T04:01:41.906Z,37.42
2019-02-08T04:02:15.685Z,43.30
2019-02-08T04:02:49.297Z,37.78
2019-02-08T04:03:22.960Z,38.83
2019-02-08T04:04:07.505Z,36.77
2019-02-08T04:04:41.038Z,33.50
2019-02-08T04:05:15.045Z,34.23
2019-02-08T04:05:48.626Z,33.10
2019-02-08T04:06:22.189Z,34.53
2019-02-08T04:06:55.721Z,34.73
2019-02-08T04:07:29.316Z,39.05
2019-02-08T04:08:03.076Z,36.80
2019-02-08T04:08:36.591Z,35.38
2019-02-08T04:09:10.309Z,35.50
2019-02-08T04:09:43.832Z,34.00
2019-02-08T04:10:17.782Z,33.25
2019-02-08T04:10:51.260Z,36.65
2019-02-08T04:11:24.785Z,42.40
2019-02-08T04:11:58.314Z,36.28
2019-02-08T04:12:31.911Z,31.07
2019-02-08T04:13:05.689Z,39.38
2019-02-08T04:13:39.437Z,36.00
2019-02-08T04:14:12.949Z,36.73
2019-02-08T04:14:46.454Z,35.10
2019-02-08T04:15:20.300Z,36.13
2019-02-08T04:15:53.817Z,34.95
2019-02-08T04:16:27.401Z,40.55
2019-02-08T04:17:00.992Z,40.38
2019-02-08T04:17:34.473Z,39.18
2019-02-08T04:18:08.744Z,36.85
2019-02-08T04:18:42.646Z,39.00
2019-02-08T04:19:16.318Z,38.42
2019-02-08T04:19:49.825Z,37.67
2019-02-08T04:20:25.171Z,36.45
2019-02-08T04:20:58.729Z,34.73
2019-02-08T04:21:32.227Z,35.90
2019-02-08T04:22:05.749Z,37.28
2019-02-08T04:22:42.025Z,36.98
2019-02-08T04:23:20.212Z,39.38
2019-02-08T04:23:53.793Z,34.18
2019-02-08T04:24:29.999Z,42.27
2019-02-08T04:25:02.684Z,35.83
2019-02-08T04:25:39.223Z,37.73
2019-02-08T04:26:12.983Z,41.05
2019-02-08T04:26:46.533Z,34.78
2019-02-08T04:27:20.017Z,33.23
2019-02-08T04:27:54.081Z,36.42
2019-02-08T04:28:27.869Z,32.90
2019-02-08T04:29:01.396Z,31.17
2019-02-08T04:29:34.881Z,39.42
2019-02-08T04:30:11.920Z,36.53
2019-02-08T04:30:45.433Z,36.30
2019-02-08T04:31:18.924Z,34.98
2019-02-08T04:31:52.424Z,41.53
2019-02-08T04:32:26.017Z,33.38
2019-02-08T04:32:59.839Z,36.88
2019-02-08T04:33:33.346Z,33.48
2019-02-08T04:34:06.855Z,32.20
2019-02-08T04:34:40.274Z,32.80
2019-02-08T04:35:13.793Z,34.98
2019-02-08T04:35:47.353Z,35.40
2019-02-08T04:36:20.850Z,34.05
2019-02-08T04:36:54.365Z,35.10
2019-02-08T04:37:27.842Z,32.67
2019-02-08T04:38:01.533Z,33.50
2019-02-08T04:38:35.114Z,36.73
2019-02-08T04:39:08.610Z,34.55
2019-02-08T04:39:42.188Z,44.83
2019-02-08T04:40:16.461Z,35.05
2019-02-08T04:40:49.963Z,37.38
2019-02-08T04:41:23.556Z,37.73
2019-02-08T04:41:57.165Z,29.20
2019-02-08T04:42:30.664Z,46.48
2019-02-08T04:43:04.435Z,36.98
2019-02-08T04:43:37.924Z,36.80
2019-02-08T04:44:11.503Z,35.38
2019-02-08T04:44:45.000Z,41.73
2019-02-08T04:45:19.009Z,29.85
2019-02-08T04:45:52.590Z,42.30
2019-02-08T04:46:26.088Z,37.73
2019-02-08T04:46:59.510Z,35.43
2019-02-08T04:47:33.185Z,36.70
2019-02-08T04:48:06.665Z,34.88
2019-02-08T04:48:40.303Z,32.08
2019-02-08T04:49:13.817Z,35.30
2019-02-08T04:49:47.302Z,30.35
2019-02-08T04:50:21.373Z,38.02
2019-02-08T04:50:54.907Z,32.03
2019-02-08T04:51:28.511Z,31.42
2019-02-08T04:52:01.995Z,34.80
2019-02-08T04:52:35.519Z,41.33
2019-02-08T04:53:09.014Z,36.42
2019-02-08T04:53:42.497Z,31.82
2019-02-08T04:54:16.051Z,36.70
2019-02-08T04:54:49.558Z,29.52
2019-02-08T04:55:23.271Z,34.55
2019-02-08T04:55:56.829Z,32.13
2019-02-08T04:56:30.359Z,37.38
2019-02-08T04:57:04.214Z,34.15
2019-02-08T04:57:39.457Z,31.95
2019-02-08T04:58:12.992Z,34.53
2019-02-08T04:58:46.521Z,34.58
2019-02-08T04:59:20.025Z,40.35
2019-02-08T04:59:53.585Z,32.73
2019-02-08T05:00:28.216Z,33.92
2019-02-08T05:01:01.805Z,34.92
2019-02-08T05:01:35.268Z,33.50
2019-02-08T05:02:08.778Z,34.63
2019-02-08T05:02:42.278Z,31.02
2019-02-08T05:03:15.905Z,30.25
2019-02-08T05:03:49.368Z,33.90
2019-02-08T05:04:22.939Z,29.55
2019-02-08T05:04:56.550Z,32.50
2019-02-08T05:05:30.099Z,36.95
2019-02-08T05:06:03.636Z,31.62
2019-02-08T05:06:37.212Z,34.92
2019-02-08T05:07:10.713Z,32.00
2019-02-08T05:07:44.214Z,32.60
2019-02-08T05:08:17.758Z,34.90
2019-02-08T05:08:51.276Z,31.42
2019-02-08T05:09:24.768Z,37.63
2019-02-08T05:09:58.287Z,34.90
2019-02-08T05:10:32.132Z,29.98
2019-02-08T05:11:05.611Z,30.52
2019-02-08T05:11:39.095Z,34.88
2019-02-08T05:12:12.801Z,37.85
2019-02-08T05:12:46.468Z,35.52
2019-02-08T05:13:20.110Z,51.53
2019-02-08T05:13:53.696Z,33.42
2019-02-08T05:14:27.181Z,25.97
2019-02-08T05:15:00.679Z,29.52
2019-02-08T05:15:34.445Z,31.52
2019-02-08T05:16:07.929Z,37.10
2019-02-08T05:16:41.488Z,31.10
2019-02-08T05:17:15.035Z,26.93
2019-02-08T05:17:48.524Z,35.80
2019-02-08T05:18:22.046Z,32.15
2019-02-08T05:18:55.694Z,29.18
2019-02-08T05:19:29.250Z,29.85
2019-02-08T05:20:03.027Z,30.08
2019-02-08T05:20:36.521Z,30.43
2019-02-08T05:21:10.072Z,32.60
2019-02-08T05:21:43.595Z,26.97
2019-02-08T05:22:17.091Z,29.35
2019-02-08T05:22:50.617Z,33.60
2019-02-08T05:23:24.172Z,29.37
2019-02-08T05:23:57.705Z,32.35
2019-02-08T05:24:31.231Z,32.10
2019-02-08T05:25:05.312Z,36.20
2019-02-08T05:25:38.829Z,33.23
2019-02-08T05:26:12.304Z,38.55
2019-02-08T05:26:45.883Z,28.90
2019-02-08T05:27:19.428Z,27.87
2019-02-08T05:27:53.043Z,28.12
2019-02-08T05:28:26.482Z,27.77
2019-02-08T05:29:00.001Z,30.40
2019-02-08T05:29:33.484Z,26.02
2019-02-08T05:30:09.097Z,30.00
2019-02-08T05:30:42.618Z,29.42
2019-02-08T05:31:16.119Z,26.42
2019-02-08T05:31:49.652Z,27.55
2019-02-08T05:32:23.216Z,29.72
2019-02-08T05:32:56.827Z,30.65
2019-02-08T05:33:30.350Z,39.48
2019-02-08T05:34:03.948Z,32.70
2019-02-08T05:34:37.443Z,27.50
2019-02-08T05:35:11.105Z,33.23
2019-02-08T05:35:44.653Z,30.77
2019-02-08T05:36:18.161Z,26.35
2019-02-08T05:36:51.772Z,32.42
2019-02-08T05:37:25.256Z,32.35
2019-02-08T05:37:58.968Z,30.52
2019-02-08T05:38:32.411Z,31.00
2019-02-08T05:39:08.241Z,28.80
2019-02-08T05:39:41.809Z,24.27
2019-02-08T05:40:16.305Z,33.75
2019-02-08T05:40:50.125Z,31.57
2019-02-08T05:41:23.734Z,30.65
2019-02-08T05:41:57.300Z,30.40
2019-02-08T05:42:30.841Z,30.90
2019-02-08T05:43:04.821Z,26.27
2019-02-08T05:43:38.522Z,28.90
2019-02-08T05:44:12.123Z,26.97
2019-02-08T05:44:45.698Z,32.48
2019-02-08T05:45:19.297Z,37.55
2019-02-08T05:45:52.828Z,34.43
2019-02-08T05:46:26.496Z,36.42
2019-02-08T05:47:00.077Z,29.02
2019-02-08T05:47:33.570Z,34.88
2019-02-08T05:48:07.205Z,31.12
2019-02-08T05:48:40.736Z,35.73
2019-02-08T05:49:14.257Z,28.10
2019-02-08T05:49:47.791Z,32.30
2019-02-08T05:50:22.398Z,27.45
2019-02-08T05:50:55.957Z,27.13
2019-02-08T05:51:29.492Z,23.35
2019-02-08T05:52:03.042Z,33.08
2019-02-08T05:52:36.490Z,28.65
2019-02-08T05:53:09.893Z,26.33
2019-02-08T05:53:43.381Z,29.80
2019-02-08T05:54:16.925Z,28.42
2019-02-08T05:54:54.446Z,34.75
2019-02-08T05:55:26.431Z,32.53
2019-02-08T05:55:59.937Z,25.25
2019-02-08T05:56:33.460Z,26.40
2019-02-08T05:57:07.937Z,25.92
2019-02-08T05:57:41.553Z,32.83
2019-02-08T05:58:15.065Z,34.50
2019-02-08T05:58:48.561Z,26.35
2019-02-08T05:59:22.084Z,30.68
2019-02-08T05:59:55.582Z,26.57
2019-02-08T06:00:58.558Z,33.38
2019-02-08T06:01:32.121Z,22.95
2019-02-08T06:02:05.622Z,24.40
2019-02-08T06:02:39.141Z,30.00
2019-02-08T06:03:12.670Z,27.13
2019-02-08T06:03:46.178Z,25.32
2019-02-08T06:04:19.721Z,30.45
2019-02-08T06:04:53.418Z,36.08
2019-02-08T06:05:27.198Z,30.97
2019-02-08T06:06:00.823Z,22.98
2019-02-08T06:06:34.361Z,27.07
2019-02-08T06:07:08.020Z,29.12
2019-02-08T06:07:41.561Z,29.60
2019-02-08T06:08:15.279Z,26.10
2019-02-08T06:08:48.801Z,22.77
2019-02-08T06:09:22.438Z,31.25
2019-02-08T06:09:56.021Z,23.80
2019-02-08T06:10:29.541Z,35.83
2019-02-08T06:11:03.047Z,31.30
2019-02-08T06:11:36.617Z,23.98
2019-02-08T06:12:10.120Z,30.52
2019-02-08T06:12:43.601Z,30.10
2019-02-08T06:13:17.256Z,28.00
2019-02-08T06:13:50.968Z,22.07
2019-02-08T06:14:24.467Z,24.32
2019-02-08T06:14:58.161Z,31.97
2019-02-08T06:15:31.783Z,29.80
2019-02-08T06:16:05.829Z,27.05
2019-02-08T06:16:39.342Z,25.25
2019-02-08T06:17:12.969Z,28.57
2019-02-08T06:17:46.804Z,22.45
2019-02-08T06:18:20.385Z,26.87
2019-02-08T06:18:53.883Z,25.37
2019-02-08T06:19:27.414Z,30.40
2019-02-08T06:20:00.958Z,24.07
2019-02-08T06:20:34.508Z,33.85
2019-02-08T06:21:08.197Z,28.55
2019-02-08T06:21:41.683Z,31.00
2019-02-08T06:22:15.258Z,28.87
2019-02-08T06:22:48.761Z,25.60
2019-02-08T06:23:22.306Z,28.25
2019-02-08T06:23:55.804Z,26.05
2019-02-08T06:24:29.331Z,26.65
2019-02-08T06:25:04.482Z,29.77
2019-02-08T06:25:38.526Z,30.12
2019-02-08T06:26:12.206Z,27.40
2019-02-08T06:26:45.694Z,33.88
2019-02-08T06:27:19.230Z,27.25
2019-02-08T06:27:52.782Z,26.25
2019-02-08T06:28:26.346Z,21.20
2019-02-08T06:28:59.900Z,24.65
2019-02-08T06:29:34.254Z,24.77
2019-02-08T06:30:09.391Z,25.00
2019-02-08T06:30:42.992Z,23.42
2019-02-08T06:31:16.576Z,25.43
2019-02-08T06:31:50.137Z,24.18
2019-02-08T06:32:23.642Z,28.40
2019-02-08T06:32:57.189Z,24.92
2019-02-08T06:33:49.879Z,25.37
2019-02-08T06:34:23.407Z,23.42
2019-02-08T06:34:56.881Z,23.40
2019-02-08T06:35:31.275Z,25.05
2019-02-08T06:36:05.000Z,33.28
2019-02-08T06:36:38.517Z,23.15
2019-02-08T06:37:12.154Z,23.27
2019-02-08T06:37:45.822Z,25.10
2019-02-08T06:38:19.328Z,31.00
2019-02-08T06:38:52.813Z,30.90
2019-02-08T06:39:26.394Z,22.65
2019-02-08T06:39:59.965Z,24.02
2019-02-08T06:40:34.243Z,24.00
2019-02-08T06:41:07.733Z,21.27
2019-02-08T06:41:41.536Z,28.17
2019-02-08T06:42:15.042Z,23.83
2019-02-08T06:42:49.048Z,27.80
2019-02-08T06:43:22.604Z,31.02
2019-02-08T06:43:56.197Z,25.55
2019-02-08T06:44:31.245Z,27.25
2019-02-08T06:45:06.508Z,29.77
2019-02-08T06:45:41.049Z,26.27
2019-02-08T06:46:15.758Z,26.42
2019-02-08T06:46:50.261Z,25.95
2019-02-08T06:47:24.644Z,26.10
2019-02-08T06:47:59.180Z,27.73
2019-02-08T06:48:34.066Z,27.15
2019-02-08T06:49:09.012Z,26.52
2019-02-08T06:49:43.982Z,22.05
2019-02-08T06:50:19.697Z,28.62
2019-02-08T06:50:54.619Z,22.82
2019-02-08T06:51:29.561Z,26.00
2019-02-08T06:52:04.039Z,24.80
2019-02-08T06:52:39.348Z,26.35
2019-02-08T06:53:14.303Z,28.07
2019-02-08T06:53:48.994Z,24.87
2019-02-08T06:54:23.886Z,33.10
2019-02-08T06:54:58.640Z,25.10
2019-02-08T06:55:33.352Z,26.07
2019-02-08T06:56:10.703Z,28.52
2019-02-08T06:57:19.747Z,26.60
2019-02-08T06:58:19.216Z,25.20
2019-02-08T06:59:02.838Z,20.72
2019-02-08T06:59:52.731Z,30.00
2019-02-08T07:00:34.517Z,25.85
2019-02-08T07:01:28.246Z,31.90
2019-02-08T07:02:30.710Z,25.50
2019-02-08T07:03:13.025Z,24.63
2019-02-08T07:04:25.398Z,24.27
2019-02-08T07:05:18.031Z,32.53
2019-02-08T07:06:09.506Z,28.98
2019-02-08T07:06:58.013Z,24.15
2019-02-08T07:07:57.981Z,22.62
2019-02-08T07:08:57.582Z,27.20
2019-02-08T07:09:50.023Z,22.87
2019-02-08T07:10:47.538Z,17.55
2019-02-08T07:11:36.131Z,26.40
2019-02-08T07:12:29.016Z,25.50
2019-02-08T07:13:13.711Z,29.82
2019-02-08T07:14:16.312Z,21.55
2019-02-08T07:15:10.858Z,27.98
2019-02-08T07:16:07.288Z,25.02
2019-02-08T07:17:19.036Z,18.95
2019-02-08T07:18:27.827Z,28.80
2019-02-08T07:19:10.253Z,26.95
2019-02-08T07:20:02.471Z,25.27
2019-02-08T07:20:43.990Z,21.25
2019-02-08T07:21:35.426Z,24.43
2019-02-08T07:22:33.483Z,21.52
2019-02-08T07:23:25.607Z,23.12
2019-02-08T07:24:17.861Z,28.05
2019-02-08T07:25:26.423Z,24.05
2019-02-08T07:26:23.214Z,23.95
2019-02-08T07:27:29.558Z,23.55
2019-02-08T07:28:35.706Z,25.43
2019-02-08T07:29:27.674Z,22.32
2019-02-08T07:30:22.395Z,24.37
2019-02-08T07:31:28.149Z,21.87
2019-02-08T07:32:25.036Z,21.73
2019-02-08T07:33:09.444Z,19.87
2019-02-08T07:33:57.041Z,20.15
2019-02-08T07:34:51.335Z,26.17
2019-02-08T07:35:45.467Z,22.15